createdAt,value
2022-09-06T00:01:23.281Z,1.10
2022-09-06T00:03:50.922Z,1.10
2022-09-06T00:06:20.523Z,1.00
2022-09-06T00:09:06.944Z,1.20
2022-09-06T00:11:53.343Z,1.10
2022-09-06T00:14:40.009Z,1.10
2022-09-06T00:17:26.510Z,1.10
2022-09-06T00:20:13.042Z,0.80
2022-09-06T00:23:01.887Z,1.17
2022-09-06T00:25:29.950Z,1.30
2022-09-06T00:27:58.573Z,1.38
2022-09-06T00:30:26.311Z,0.88
2022-09-06T00:32:53.924Z,1.20
2022-09-06T00:35:21.879Z,0.90
2022-09-06T00:37:48.867Z,1.27
2022-09-06T00:40:16.019Z,1.38
2022-09-06T00:42:43.221Z,1.00
2022-09-06T00:45:11.810Z,1.63
2022-09-06T00:47:41.991Z,1.08
2022-09-06T00:50:12.824Z,1.10
2022-09-06T00:52:42.834Z,1.30
2022-09-06T00:55:10.039Z,1.30
2022-09-06T00:57:37.156Z,1.60
2022-09-06T01:00:06.537Z,1.17
2022-09-06T01:02:33.352Z,1.10
2022-09-06T01:05:01.288Z,1.55
2022-09-06T01:07:43.840Z,1.20
2022-09-06T01:10:31.632Z,1.48
2022-09-06T01:13:04.484Z,1.42
2022-09-06T01:16:06.450Z,1.25
2022-09-06T01:18:42.116Z,1.20
2022-09-06T01:21:33.284Z,1.27
2022-09-06T01:24:11.979Z,1.42
2022-09-06T01:26:58.433Z,1.30
2022-09-06T01:29:36.783Z,1.33
2022-09-06T01:32:25.274Z,1.23
2022-09-06T01:35:23.012Z,1.40
2022-09-06T01:37:49.839Z,1.40
2022-09-06T01:40:16.377Z,1.33
2022-09-06T01:42:46.461Z,1.73
2022-09-06T01:45:18.156Z,2.30
2022-09-06T01:47:57.086Z,2.00
2022-09-06T01:50:38.673Z,2.10
2022-09-06T01:53:30.040Z,1.90
2022-09-06T01:56:10.076Z,2.15
2022-09-06T01:59:06.499Z,1.98
2022-09-06T02:02:00.196Z,2.47
2022-09-06T02:04:31.030Z,2.75
2022-09-06T02:07:06.096Z,3.10
2022-09-06T02:09:40.896Z,2.75
2022-09-06T02:12:12.433Z,2.50
2022-09-06T02:14:43.678Z,2.60
2022-09-06T02:17:15.891Z,2.38
2022-09-06T02:19:48.575Z,2.35
2022-09-06T02:22:19.759Z,2.47
2022-09-06T02:24:50.016Z,2.17
2022-09-06T02:27:17.084Z,2.28
2022-09-06T02:29:45.104Z,2.42
2022-09-06T02:32:18.388Z,2.22
2022-09-06T02:34:46.135Z,2.33
2022-09-06T02:37:13.524Z,2.20
2022-09-06T02:39:40.513Z,2.92
2022-09-06T02:42:10.100Z,2.30
2022-09-06T02:44:37.049Z,2.13
2022-09-06T02:47:03.875Z,2.05
2022-09-06T02:49:31.202Z,2.25
2022-09-06T02:51:58.273Z,2.40
2022-09-06T02:54:25.331Z,2.08
2022-09-06T02:56:52.590Z,2.30
2022-09-06T02:59:19.640Z,2.10
2022-09-06T03:01:46.226Z,2.40
2022-09-06T03:04:12.960Z,2.15
2022-09-06T03:06:40.035Z,2.25
2022-09-06T03:09:06.515Z,2.33
2022-09-06T03:11:32.963Z,2.45
2022-09-06T03:13:59.871Z,2.20
2022-09-06T03:16:26.448Z,2.00
2022-09-06T03:18:53.248Z,2.00
2022-09-06T03:21:20.320Z,2.08
2022-09-06T03:23:47.315Z,1.73
2022-09-06T03:26:13.844Z,1.80
2022-09-06T03:28:40.531Z,2.40
2022-09-06T03:31:07.324Z,1.70
2022-09-06T03:33:34.559Z,1.80
2022-09-06T03:36:03.120Z,1.70
2022-09-06T03:38:30.399Z,1.73
2022-09-06T03:40:57.196Z,1.33
2022-09-06T03:43:26.010Z,1.80
2022-09-06T03:45:55.164Z,1.55
2022-09-06T03:48:23.556Z,1.48
2022-09-06T03:50:52.544Z,1.70
2022-09-06T03:53:19.897Z,1.85
2022-09-06T03:55:48.410Z,1.65
2022-09-06T03:58:17.317Z,1.55
2022-09-06T04:00:45.041Z,1.35
2022-09-06T04:03:11.791Z,1.52
2022-09-06T04:05:39.008Z,1.50
2022-09-06T04:08:05.975Z,1.55
2022-09-06T04:10:34.009Z,1.58
2022-09-06T04:13:00.646Z,1.50
2022-09-06T04:15:27.104Z,1.20
2022-09-06T04:17:54.039Z,1.55
2022-09-06T04:20:20.521Z,1.60
2022-09-06T04:22:47.200Z,1.40
2022-09-06T04:25:14.094Z,1.60
2022-09-06T04:27:40.740Z,1.73
2022-09-06T04:30:07.990Z,1.45
2022-09-06T04:32:34.686Z,1.25
2022-09-06T04:35:01.205Z,1.73
2022-09-06T04:37:28.307Z,1.40
2022-09-06T04:39:55.503Z,1.60
2022-09-06T04:42:22.447Z,1.52
2022-09-06T04:44:49.129Z,1.60
2022-09-06T04:47:19.176Z,1.63
2022-09-06T04:49:48.138Z,1.58
2022-09-06T04:52:16.133Z,1.85
2022-09-06T04:54:43.680Z,1.40
2022-09-06T04:57:10.646Z,1.58
2022-09-06T04:59:37.242Z,1.63
2022-09-06T05:02:04.222Z,1.60
2022-09-06T05:04:30.770Z,1.58
2022-09-06T05:07:05.670Z,1.92
2022-09-06T05:09:33.316Z,1.80
2022-09-06T05:12:00.838Z,1.48
2022-09-06T05:14:28.274Z,1.52
2022-09-06T05:16:55.139Z,2.05
2022-09-06T05:19:21.889Z,2.10
2022-09-06T05:21:50.677Z,1.90
2022-09-06T05:24:17.276Z,1.95
2022-09-06T05:26:43.979Z,1.85
2022-09-06T05:29:10.888Z,2.20
2022-09-06T05:31:37.444Z,1.85
2022-09-06T05:34:03.993Z,2.13
2022-09-06T05:36:31.300Z,2.22
2022-09-06T05:38:58.843Z,2.17
2022-09-06T05:41:25.900Z,2.30
2022-09-06T05:43:52.475Z,2.67
2022-09-06T05:46:19.706Z,2.60
2022-09-06T05:49:00.355Z,2.83
2022-09-06T05:51:27.117Z,2.88
2022-09-06T05:53:54.057Z,2.63
2022-09-06T05:56:22.389Z,2.75
2022-09-06T05:58:49.015Z,2.70
2022-09-06T06:01:22.828Z,2.67
2022-09-06T06:04:05.496Z,3.28
2022-09-06T06:06:34.118Z,3.20
2022-09-06T06:09:00.962Z,2.92
2022-09-06T06:11:27.896Z,3.45
2022-09-06T06:13:54.469Z,2.85
2022-09-06T06:16:22.656Z,3.30
2022-09-06T06:18:52.183Z,3.55
2022-09-06T06:21:21.883Z,3.22
2022-09-06T06:23:54.407Z,3.30
2022-09-06T06:26:21.706Z,3.28
2022-09-06T06:28:48.909Z,3.50
2022-09-06T06:31:19.232Z,3.37
2022-09-06T06:33:46.273Z,3.47
2022-09-06T06:36:13.175Z,4.38
2022-09-06T06:38:44.709Z,4.30
2022-09-06T06:41:13.524Z,4.25
2022-09-06T06:43:40.490Z,3.90
2022-09-06T06:46:09.459Z,3.97
2022-09-06T06:48:38.161Z,4.18
2022-09-06T06:51:05.043Z,4.07
2022-09-06T06:53:32.940Z,5.32
2022-09-06T06:55:59.412Z,4.85
2022-09-06T06:58:26.392Z,3.88
2022-09-06T07:00:53.879Z,4.05
2022-09-06T07:03:20.442Z,4.43
2022-09-06T07:08:34.749Z,4.90
2022-09-06T07:11:01.387Z,4.32
2022-09-06T07:13:28.395Z,3.92
2022-09-06T07:16:24.755Z,3.92
2022-09-06T07:18:53.180Z,4.50
2022-09-06T07:21:41.374Z,4.35
2022-09-06T07:24:09.242Z,4.40
2022-09-06T07:26:38.505Z,5.18
2022-09-06T07:29:06.813Z,4.60
2022-09-06T07:34:22.237Z,5.28
2022-09-06T07:36:52.411Z,4.95
2022-09-06T07:39:18.865Z,4.97
2022-09-06T07:41:45.639Z,4.47
2022-09-06T07:44:12.146Z,4.82
2022-09-06T07:46:38.700Z,5.40
2022-09-06T07:49:05.877Z,5.03
2022-09-06T07:51:32.905Z,5.05
2022-09-06T07:54:26.370Z,5.28
2022-09-06T07:56:46.468Z,5.50
2022-09-06T07:59:13.402Z,5.68
2022-09-06T08:01:40.812Z,5.47
2022-09-06T08:04:13.079Z,5.03
2022-09-06T08:09:33.159Z,4.60
2022-09-06T08:11:59.769Z,4.53
2022-09-06T08:14:26.472Z,4.57
2022-09-06T08:16:53.035Z,4.30
2022-09-06T08:19:19.528Z,4.55
2022-09-06T08:21:46.119Z,4.53
2022-09-06T08:24:13.209Z,4.78
2022-09-06T08:26:40.557Z,4.28
2022-09-06T08:29:08.588Z,4.40
2022-09-06T08:31:37.702Z,4.57
2022-09-06T08:34:04.339Z,4.72
2022-09-06T08:36:31.520Z,3.85
2022-09-06T08:39:04.473Z,4.20
2022-09-06T08:41:41.851Z,4.35
2022-09-06T08:47:02.157Z,4.00
2022-09-06T08:49:35.433Z,4.07
2022-09-06T08:52:22.461Z,3.83
2022-09-06T08:55:01.277Z,3.83
2022-09-06T08:57:53.459Z,4.15
2022-09-06T09:00:20.567Z,4.18
2022-09-06T09:02:51.707Z,4.22
2022-09-06T09:05:33.780Z,4.43
2022-09-06T09:08:08.016Z,3.85
2022-09-06T09:10:42.179Z,4.00
2022-09-06T09:13:18.489Z,4.28
2022-09-06T09:15:45.144Z,4.40
2022-09-06T09:18:11.903Z,3.75
2022-09-06T09:20:39.046Z,3.53
2022-09-06T09:23:05.587Z,3.70
2022-09-06T09:25:33.272Z,3.65
2022-09-06T09:28:00.281Z,3.65
2022-09-06T09:33:24.581Z,3.05
2022-09-06T09:35:51.696Z,2.65
2022-09-06T09:38:27.801Z,3.13
2022-09-06T09:41:01.564Z,3.30
2022-09-06T09:43:34.802Z,2.88
2022-09-06T09:46:24.327Z,2.55
2022-09-06T09:49:11.017Z,2.35
2022-09-06T09:51:39.075Z,2.10
2022-09-06T09:54:08.931Z,2.25
2022-09-06T09:56:43.629Z,2.35
2022-09-06T09:59:42.101Z,2.17
2022-09-06T10:02:30.014Z,2.25
2022-09-06T10:05:20.701Z,2.38
2022-09-06T10:07:49.775Z,2.80
2022-09-06T10:10:23.137Z,2.65
2022-09-06T10:13:07.238Z,1.75
2022-09-06T10:15:38.823Z,2.05
2022-09-06T10:18:05.654Z,1.73
2022-09-06T10:20:42.161Z,2.30
2022-09-06T10:26:38.333Z,2.55
2022-09-06T10:29:06.375Z,2.42
2022-09-06T10:31:47.398Z,2.00
2022-09-06T10:34:19.812Z,2.00
2022-09-06T10:36:54.832Z,1.90
2022-09-06T10:39:54.864Z,1.70
2022-09-06T10:42:33.863Z,1.58
2022-09-06T10:45:23.281Z,1.73
2022-09-06T10:47:54.919Z,1.80
2022-09-06T10:50:25.664Z,2.10
2022-09-06T10:52:53.361Z,1.80
2022-09-06T10:55:20.464Z,2.10
2022-09-06T11:00:47.272Z,1.90
2022-09-06T11:03:57.103Z,1.92
2022-09-06T11:06:32.678Z,1.88
2022-09-06T11:09:17.994Z,1.83
2022-09-06T11:11:46.454Z,1.90
2022-09-06T11:14:14.140Z,2.25
2022-09-06T11:16:59.129Z,1.35
2022-09-06T11:19:32.350Z,1.77
2022-09-06T11:22:40.828Z,2.08
2022-09-06T11:25:36.276Z,1.52
2022-09-06T11:28:09.780Z,1.70
2022-09-06T11:30:36.778Z,1.60
2022-09-06T11:33:18.614Z,1.30
2022-09-06T11:35:45.163Z,1.83
2022-09-06T11:38:14.608Z,1.52
2022-09-06T11:40:45.306Z,1.73
2022-09-06T11:43:42.698Z,1.30
2022-09-06T11:46:09.349Z,1.35
2022-09-06T11:49:02.453Z,1.58
2022-09-06T11:51:41.015Z,2.22
2022-09-06T11:54:19.989Z,1.60
2022-09-06T11:56:46.367Z,1.60
2022-09-06T11:59:33.297Z,1.80
2022-09-06T12:02:01.218Z,1.25
2022-09-06T12:05:07.495Z,1.58
2022-09-06T12:07:38.461Z,1.60
2022-09-06T12:10:30.162Z,1.80
2022-09-06T12:12:57.664Z,1.60
2022-09-06T12:15:32.832Z,1.55
2022-09-06T12:18:00.533Z,1.55
2022-09-06T12:20:48.884Z,1.42
2022-09-06T12:23:42.295Z,1.70
2022-09-06T12:26:10.600Z,1.80
2022-09-06T12:28:51.984Z,1.45
2022-09-06T12:31:39.591Z,1.75
2022-09-06T12:34:34.800Z,1.38
2022-09-06T12:37:04.865Z,1.30
2022-09-06T12:39:31.854Z,1.65
2022-09-06T12:42:04.879Z,1.45
2022-09-06T12:44:36.266Z,1.48
2022-09-06T12:47:24.766Z,1.35
2022-09-06T12:50:13.325Z,2.00
2022-09-06T12:52:54.296Z,1.20
2022-09-06T12:55:34.284Z,1.42
2022-09-06T12:58:04.830Z,1.58
2022-09-06T13:00:36.226Z,1.20
2022-09-06T13:03:20.967Z,1.50
2022-09-06T13:05:47.808Z,1.30
2022-09-06T13:08:22.753Z,1.08
2022-09-06T13:10:49.222Z,1.13
2022-09-06T13:13:24.599Z,1.45
2022-09-06T13:15:53.086Z,1.67
2022-09-06T13:18:35.346Z,1.30
2022-09-06T13:21:07.767Z,1.45
2022-09-06T13:23:46.686Z,1.40
2022-09-06T13:26:14.427Z,1.35
2022-09-06T13:28:41.380Z,1.30
2022-09-06T13:31:17.327Z,1.42
2022-09-06T13:33:45.146Z,1.33
2022-09-06T13:36:11.551Z,1.33
2022-09-06T13:38:37.966Z,1.30
2022-09-06T13:41:26.459Z,1.60
2022-09-06T13:44:00.657Z,1.77
2022-09-06T13:46:27.332Z,1.40
2022-09-06T13:48:54.571Z,1.33
2022-09-06T13:51:21.689Z,1.20
2022-09-06T13:53:48.903Z,1.50
2022-09-06T13:56:16.762Z,1.20
2022-09-06T13:58:45.079Z,1.40
2022-09-06T14:01:28.253Z,1.65
2022-09-06T14:03:55.131Z,1.38
2022-09-06T14:06:21.684Z,1.23
2022-09-06T14:09:07.248Z,1.40
2022-09-06T14:11:34.593Z,1.52
2022-09-06T14:14:01.127Z,1.40
2022-09-06T14:16:27.652Z,1.50
2022-09-06T14:18:54.128Z,1.67
2022-09-06T14:21:20.656Z,1.50
2022-09-06T14:23:52.049Z,1.27
2022-09-06T14:26:20.866Z,1.85
2022-09-06T14:28:47.869Z,1.15
2022-09-06T14:31:17.035Z,1.30
2022-09-06T14:33:43.924Z,1.60
2022-09-06T14:36:17.012Z,1.67
2022-09-06T14:38:45.322Z,1.58
2022-09-06T14:41:15.778Z,1.38
2022-09-06T14:43:43.471Z,1.30
2022-09-06T14:46:12.729Z,1.40
2022-09-06T14:48:42.434Z,1.95
2022-09-06T14:53:41.349Z,1.48
2022-09-06T14:56:09.542Z,1.70
2022-09-06T14:58:37.767Z,1.45
2022-09-06T15:01:15.476Z,1.67
2022-09-06T15:03:44.496Z,1.52
2022-09-06T15:06:11.028Z,1.45
2022-09-06T15:08:37.933Z,1.67
2022-09-06T15:11:07.843Z,1.70
2022-09-06T15:16:04.475Z,1.70
2022-09-06T15:18:31.835Z,2.10
2022-09-06T15:20:58.533Z,1.85
2022-09-06T15:23:27.370Z,2.00
2022-09-06T15:25:54.129Z,2.10
2022-09-06T15:28:20.878Z,1.85
2022-09-06T15:30:47.887Z,2.17
2022-09-06T15:33:15.005Z,2.10
2022-09-06T15:35:43.065Z,1.83
2022-09-06T15:38:12.761Z,2.30
2022-09-06T15:40:39.367Z,2.00
2022-09-06T15:43:06.222Z,1.77
2022-09-06T15:45:47.255Z,1.60
2022-09-06T15:48:15.863Z,1.80
2022-09-06T15:50:51.232Z,1.65
2022-09-06T15:53:19.359Z,1.50
2022-09-06T15:56:02.583Z,1.40
2022-09-06T15:58:30.425Z,1.42
2022-09-06T16:01:04.710Z,1.60
2022-09-06T16:03:32.711Z,1.85
2022-09-06T16:09:00.316Z,1.90
2022-09-06T16:11:28.905Z,2.38
2022-09-06T16:13:56.126Z,2.28
2022-09-06T16:16:23.026Z,2.00
2022-09-06T16:18:52.056Z,2.05
2022-09-06T16:21:25.170Z,1.73
2022-09-06T16:23:58.184Z,1.90
2022-09-06T16:26:27.926Z,1.90
2022-09-06T16:28:54.608Z,2.10
2022-09-06T16:31:22.013Z,2.08
2022-09-06T16:33:49.668Z,2.20
2022-09-06T16:36:17.671Z,2.47
2022-09-06T16:38:45.313Z,2.40
2022-09-06T16:41:22.762Z,2.50
2022-09-06T16:43:49.418Z,2.72
2022-09-06T16:46:16.351Z,2.83
2022-09-06T16:48:43.006Z,2.58
2022-09-06T16:51:15.206Z,2.53
2022-09-06T16:53:44.546Z,1.70
2022-09-06T16:56:12.885Z,2.03
2022-09-06T16:58:39.471Z,1.75
2022-09-06T17:01:08.483Z,1.75
2022-09-06T17:03:39.022Z,1.95
2022-09-06T17:06:07.429Z,2.08
2022-09-06T17:08:35.260Z,1.80
2022-09-06T17:11:06.607Z,1.80
2022-09-06T17:13:33.504Z,1.98
2022-09-06T17:16:22.107Z,1.67
2022-09-06T17:18:49.962Z,1.75
2022-09-06T17:21:16.451Z,1.80
2022-09-06T17:23:43.431Z,1.77
2022-09-06T17:26:09.895Z,2.03
2022-09-06T17:28:38.196Z,1.67
2022-09-06T17:31:05.691Z,1.88
2022-09-06T17:33:33.742Z,2.65
2022-09-06T17:36:12.787Z,1.70
2022-09-06T17:38:42.531Z,2.30
2022-09-06T17:41:20.414Z,2.00
2022-09-06T17:43:47.467Z,1.70
2022-09-06T17:46:14.959Z,2.10
2022-09-06T17:48:43.448Z,2.25
2022-09-06T17:51:11.346Z,1.60
2022-09-06T17:53:38.543Z,1.98
2022-09-06T17:56:09.980Z,1.90
2022-09-06T17:58:37.470Z,1.58
2022-09-06T18:01:04.923Z,2.20
2022-09-06T18:03:31.746Z,2.35
2022-09-06T18:06:13.580Z,1.80
2022-09-06T18:08:43.721Z,2.45
2022-09-06T18:13:45.480Z,2.40
2022-09-06T18:16:14.028Z,1.95
2022-09-06T18:18:41.545Z,1.40
2022-09-06T18:21:08.102Z,1.58
2022-09-06T18:23:35.626Z,2.17
2022-09-06T18:26:05.372Z,1.90
2022-09-06T18:28:34.320Z,1.42
2022-09-06T18:31:09.456Z,2.20
2022-09-06T18:33:36.838Z,1.90
2022-09-06T18:36:05.024Z,1.92
2022-09-06T18:38:31.771Z,2.40
2022-09-06T18:41:04.146Z,2.58
2022-09-06T18:43:33.656Z,2.88
2022-09-06T18:46:04.066Z,2.33
2022-09-06T18:48:32.935Z,2.03
2022-09-06T18:51:11.633Z,2.08
2022-09-06T18:53:44.440Z,1.75
2022-09-06T18:56:13.164Z,1.95
2022-09-06T18:58:40.808Z,1.67
2022-09-06T19:01:12.874Z,2.17
2022-09-06T19:03:40.511Z,1.83
2022-09-06T19:06:16.227Z,1.77
2022-09-06T19:08:43.503Z,2.22
2022-09-06T19:11:19.184Z,2.05
2022-09-06T19:13:50.058Z,1.85
2022-09-06T19:16:17.027Z,2.10
2022-09-06T19:18:44.096Z,2.00
2022-09-06T19:21:19.066Z,1.65
2022-09-06T19:23:47.794Z,1.98
2022-09-06T19:26:20.460Z,1.80
2022-09-06T19:28:53.107Z,1.67
2022-09-06T19:31:20.107Z,1.60
2022-09-06T19:33:48.228Z,1.75
2022-09-06T19:36:15.863Z,1.48
2022-09-06T19:39:02.067Z,1.52
2022-09-06T19:41:30.677Z,1.80
2022-09-06T19:43:58.485Z,1.80
2022-09-06T19:46:26.640Z,1.58
2022-09-06T19:48:56.006Z,1.88
2022-09-06T19:51:23.588Z,1.33
2022-09-06T19:53:53.052Z,1.77
2022-09-06T19:56:22.393Z,1.60
2022-09-06T19:58:55.255Z,1.50
2022-09-06T20:01:22.839Z,1.55
2022-09-06T20:03:49.989Z,1.60
2022-09-06T20:06:16.701Z,1.63
2022-09-06T20:08:43.202Z,1.67
2022-09-06T20:11:12.763Z,1.48
2022-09-06T20:13:40.380Z,1.48
2022-09-06T20:16:08.636Z,1.70
2022-09-06T20:18:35.506Z,1.90
2022-09-06T20:21:02.998Z,1.63
2022-09-06T20:23:31.935Z,1.73
2022-09-06T20:26:04.316Z,1.65
2022-09-06T20:28:32.042Z,1.77
2022-09-06T20:31:06.270Z,2.00
2022-09-06T20:33:33.812Z,1.63
2022-09-06T20:36:02.931Z,1.60
2022-09-06T20:38:35.437Z,2.05
2022-09-06T20:41:07.709Z,2.15
2022-09-06T20:43:38.958Z,1.83
2022-09-06T20:46:17.013Z,1.83
2022-09-06T20:48:45.535Z,1.88
2022-09-06T20:51:18.837Z,1.95
2022-09-06T20:53:48.323Z,2.10
2022-09-06T20:56:17.438Z,2.15
2022-09-06T20:58:49.166Z,1.85
2022-09-06T21:01:22.557Z,2.20
2022-09-06T21:03:52.376Z,2.10
2022-09-06T21:06:20.505Z,1.98
2022-09-06T21:08:47.979Z,2.25
2022-09-06T21:11:14.807Z,2.08
2022-09-06T21:13:42.131Z,1.88
2022-09-06T21:16:08.877Z,2.05
2022-09-06T21:18:36.013Z,1.92
2022-09-06T21:21:05.521Z,1.70
2022-09-06T21:23:35.390Z,2.00
2022-09-06T21:26:03.225Z,1.67
2022-09-06T21:28:32.801Z,1.90
2022-09-06T21:31:12.303Z,1.83
2022-09-06T21:33:43.196Z,1.58
2022-09-06T21:36:15.357Z,2.17
2022-09-06T21:38:45.571Z,2.00
2022-09-06T21:41:14.037Z,2.13
2022-09-06T21:43:41.226Z,1.90
2022-09-06T21:46:10.860Z,1.60
2022-09-06T21:48:38.799Z,1.58
2022-09-06T21:51:14.079Z,2.22
2022-09-06T21:53:42.694Z,1.88
2022-09-06T21:56:10.136Z,1.70
2022-09-06T21:58:37.220Z,2.22
2022-09-06T22:01:04.963Z,1.85
2022-09-06T22:03:35.209Z,1.30
2022-09-06T22:06:13.963Z,2.00
2022-09-06T22:08:43.783Z,1.77
2022-09-06T22:11:22.344Z,1.90
2022-09-06T22:13:50.169Z,2.17
2022-09-06T22:16:20.324Z,1.58
2022-09-06T22:18:49.211Z,1.52
2022-09-06T22:21:20.098Z,1.77
2022-09-06T22:24:01.855Z,1.50
2022-09-06T22:26:30.397Z,1.92
2022-09-06T22:28:58.956Z,1.70
2022-09-06T22:31:27.397Z,1.50
2022-09-06T22:33:54.701Z,1.40
2022-09-06T22:36:23.704Z,1.83
2022-09-06T22:38:53.290Z,1.50
2022-09-06T22:41:19.845Z,1.20
2022-09-06T22:43:46.540Z,1.85
2022-09-06T22:46:13.886Z,1.65
2022-09-06T22:48:41.262Z,1.42
2022-09-06T22:51:08.120Z,1.60
2022-09-06T22:53:35.135Z,1.42
2022-09-06T22:56:02.534Z,1.60
2022-09-06T22:58:29.614Z,1.55
2022-09-06T23:00:57.276Z,1.70
2022-09-06T23:03:24.035Z,1.80
2022-09-06T23:05:50.865Z,2.13
2022-09-06T23:08:17.411Z,1.77
2022-09-06T23:10:44.345Z,2.00
2022-09-06T23:13:11.371Z,1.73
2022-09-06T23:15:40.731Z,1.60
2022-09-06T23:18:08.573Z,1.52
2022-09-06T23:20:36.839Z,1.80
2022-09-06T23:23:05.225Z,1.90
2022-09-06T23:25:31.954Z,1.60
2022-09-06T23:28:00.077Z,1.60
2022-09-06T23:30:27.082Z,1.90
2022-09-06T23:32:53.918Z,1.73
2022-09-06T23:35:20.370Z,2.10
2022-09-06T23:37:51.359Z,1.63
2022-09-06T23:40:19.430Z,1.73
2022-09-06T23:42:46.902Z,1.83
2022-09-06T23:45:13.816Z,1.65
2022-09-06T23:47:41.080Z,1.52
2022-09-06T23:50:07.800Z,2.08
2022-09-06T23:52:34.503Z,1.45
2022-09-06T23:55:00.956Z,2.35
2022-09-06T23:57:27.663Z,2.30
2022-09-06T23:59:54.095Z,2.28
